»·PEaware :: N583SC KSEE-KCNO

N583SC :: KSEE-KCNO

FLIGHT INFORMATION

Flight Status: Arrived
Operator: Privately registered:
United States
More flights under this callsign
Pilot: Scott G. (88)
Aircraft: CESSNA 172 SKYHAWK
(C172)
More flights by this aircraft type
Origin: KSEE Gillespie
United States
Destination: KCNO Chino
United States
More flights between these airports :: More routes between these airports
Route: JLI
File this flight plan on PilotEdge
Remarks:
Altitude:
(Current/Filed)
6,500ft
Speed:
(Current/Filed)
115kts
Departed: 05-Nov-18 11:10 AM
Arrived: 05-Nov-18 11:55 AM
Distance/Time
Traveled:
77nm/0:44
Distance/Time
To Go:
Arrived

Flight Plot

Page will automatically refresh every two minutes.

Flight plan parsing failed; only flown route is shown


Map Options




Map Legend


Flown Route
Filed Route
Departure Airport
Arrival Airport
Navaid (VOR, NDB)
Fix

Horizontal Profiles

Position Reports

Time Latitude Longitude Heading Altitude Ground
Speed
05-Nov-18 10:47 32.824795 -116.969704 14 392ft 0kts
05-Nov-18 10:48 32.824795 -116.969704 14 392ft 0kts
05-Nov-18 10:49 32.824795 -116.969704 14 392ft 0kts
05-Nov-18 10:50 32.824795 -116.969704 14 392ft 0kts
05-Nov-18 10:51 32.824795 -116.969704 14 392ft 0kts
05-Nov-18 10:52 32.824795 -116.969704 14 392ft 0kts
05-Nov-18 10:53 32.824795 -116.969704 14 392ft 0kts
05-Nov-18 10:54 32.824795 -116.969704 14 392ft 0kts
05-Nov-18 10:55 32.824795 -116.969704 14 392ft 0kts
05-Nov-18 10:56 32.824795 -116.969704 14 392ft 0kts
05-Nov-18 10:57 32.824795 -116.969704 14 392ft 0kts
05-Nov-18 10:58 32.824795 -116.969704 14 392ft 0kts
05-Nov-18 10:59 32.824795 -116.969704 14 392ft 0kts
05-Nov-18 11:00 32.824795 -116.969704 14 392ft 0kts
05-Nov-18 11:01 32.824795 -116.969704 14 392ft 0kts
05-Nov-18 11:02 32.824795 -116.969704 14 392ft 0kts
05-Nov-18 11:03 32.824795 -116.969704 14 392ft 0kts
05-Nov-18 11:04 32.824795 -116.969704 14 392ft 0kts
05-Nov-18 11:05 32.824795 -116.969704 14 392ft 0kts
05-Nov-18 11:06 32.824795 -116.969704 14 392ft 0kts
05-Nov-18 11:07 32.824795 -116.969704 14 392ft 0kts
05-Nov-18 11:08 32.824834 -116.969692 13 392ft 0kts
05-Nov-18 11:09 32.824864 -116.965985 65 392ft 6kts
05-Nov-18 11:10 32.825976 -116.964391 357 392ft 0kts
05-Nov-18 11:11 32.825976 -116.964391 357 392ft 0kts
05-Nov-18 11:12 32.825976 -116.964391 357 392ft 0kts
05-Nov-18 11:13 32.826955 -116.967090 281 392ft 57kts
05-Nov-18 11:14 32.837787 -116.979488 50 995ft 93kts
05-Nov-18 11:15 32.858206 -116.953439 40 1611ft 117kts
05-Nov-18 11:16 32.884779 -116.928929 33 2250ft 123kts
05-Nov-18 11:17 32.911355 -116.902532 49 2949ft 127kts
05-Nov-18 11:18 32.936094 -116.872457 31 3654ft 129kts
05-Nov-18 11:19 32.968364 -116.848842 31 3810ft 136kts
05-Nov-18 11:20 33.001687 -116.833704 15 4415ft 124kts
05-Nov-18 11:21 33.036903 -116.821148 15 4510ft 132kts
05-Nov-18 11:22 33.070619 -116.826720 324 4518ft 124kts
05-Nov-18 11:23 33.099275 -116.849162 320 4531ft 123kts
05-Nov-18 11:24 33.125602 -116.870831 319 5067ft 114kts
05-Nov-18 11:25 33.151491 -116.892193 318 5663ft 111kts
05-Nov-18 11:26 33.176194 -116.912562 317 6258ft 104kts
05-Nov-18 11:27 33.200504 -116.932659 319 6542ft 117kts
05-Nov-18 11:28 33.227100 -116.954483 319 6544ft 113kts
05-Nov-18 11:29 33.252972 -116.975809 319 6537ft 112kts
05-Nov-18 11:30 33.278750 -116.997075 319 6530ft 112kts
05-Nov-18 11:31 33.304415 -117.018177 320 6522ft 111kts
05-Nov-18 11:32 33.330131 -117.038848 320 6514ft 111kts
05-Nov-18 11:33 33.355810 -117.059693 320 6506ft 111kts
05-Nov-18 11:34 33.381583 -117.080855 320 6504ft 113kts
05-Nov-18 11:35 33.407614 -117.102286 320 6509ft 113kts
05-Nov-18 11:36 33.433680 -117.123767 320 6515ft 113kts
05-Nov-18 11:37 33.459890 -117.145372 320 6519ft 114kts
05-Nov-18 11:38 33.486533 -117.167338 320 6522ft 115kts
05-Nov-18 11:39 33.510869 -117.191450 326 6514ft 118kts
05-Nov-18 11:40 33.539162 -117.212002 322 6518ft 118kts
05-Nov-18 11:41 33.566703 -117.234137 320 6522ft 119kts
05-Nov-18 11:42 33.594426 -117.256988 320 6526ft 120kts
05-Nov-18 11:43 33.622231 -117.280062 320 6533ft 120kts
05-Nov-18 11:44 33.649895 -117.303074 320 6540ft 120kts
05-Nov-18 11:45 33.679543 -117.327769 321 6149ft 134kts
05-Nov-18 11:46 33.710619 -117.353649 322 5556ft 135kts
05-Nov-18 11:47 33.741659 -117.379556 323 4955ft 135kts
05-Nov-18 11:48 33.770114 -117.408666 315 4356ft 133kts
05-Nov-18 11:49 33.793491 -117.439014 315 3752ft 131kts
05-Nov-18 11:50 33.818528 -117.470844 315 3051ft 131kts
05-Nov-18 11:51 33.845715 -117.498212 325 2580ft 120kts
05-Nov-18 11:52 33.872558 -117.521139 325 2579ft 119kts
05-Nov-18 11:53 33.901608 -117.541238 335 2468ft 124kts
05-Nov-18 11:54 33.928107 -117.559927 323 2161ft 103kts
05-Nov-18 11:55 33.947467 -117.582905 314 1860ft 96kts
05-Nov-18 11:56 33.964662 -117.604750 312 1460ft 80kts
05-Nov-18 11:57 33.976225 -117.625813 265 868ft 74kts
05-Nov-18 11:58 33.976590 -117.639256 1 653ft 0kts
05-Nov-18 11:59 33.976665 -117.639254 1 653ft 1kts
05-Nov-18 12:00 33.977399 -117.637152 358 653ft 1kts
05-Nov-18 12:01 33.977417 -117.637153 358 653ft 0kts

Navigation Log

Ident Type
Flight plan parsing failed, navigation log unavailable